createdAt,value
2023-04-28T00:01:02.609Z,3.83
2023-04-28T00:04:05.486Z,3.60
2023-04-28T00:07:07.756Z,3.70
2023-04-28T00:10:10.005Z,3.69
2023-04-28T00:13:12.689Z,3.73
2023-04-28T00:16:14.494Z,3.68
2023-04-28T00:19:17.205Z,3.61
2023-04-28T00:22:19.463Z,3.59
2023-04-28T00:25:21.319Z,3.55
2023-04-28T00:28:33.641Z,3.57
2023-04-28T00:31:36.255Z,3.56
2023-04-28T00:34:38.066Z,3.53
2023-04-28T00:37:39.851Z,3.52
2023-04-28T00:40:41.929Z,3.46
2023-04-28T00:43:45.706Z,3.45
2023-04-28T00:46:47.973Z,3.38
2023-04-28T00:49:50.329Z,3.30
2023-04-28T00:52:52.662Z,3.39
2023-04-28T00:55:57.120Z,3.37
2023-04-28T00:58:59.569Z,3.33
2023-04-28T01:02:01.753Z,3.30
2023-04-28T01:05:04.156Z,3.23
2023-04-28T01:08:06.167Z,3.19
2023-04-28T01:11:10.480Z,3.15
2023-04-28T01:14:12.448Z,3.11
2023-04-28T01:17:14.759Z,3.06
2023-04-28T01:20:17.042Z,2.98
2023-04-28T01:23:19.036Z,2.94
2023-04-28T01:26:21.718Z,2.89
2023-04-28T01:29:23.704Z,2.92
2023-04-28T01:32:25.900Z,2.92
2023-04-28T01:35:28.011Z,2.94
2023-04-28T01:38:29.792Z,2.90
2023-04-28T01:41:34.466Z,2.90
2023-04-28T01:44:36.444Z,2.86
2023-04-28T01:47:38.661Z,2.89
2023-04-28T01:50:40.511Z,2.87
2023-04-28T01:53:42.727Z,2.84
2023-04-28T01:56:44.609Z,2.81
2023-04-28T01:59:47.421Z,2.75
2023-04-28T02:02:49.482Z,2.73
2023-04-28T02:05:51.355Z,2.69
2023-04-28T02:08:53.192Z,2.56
2023-04-28T02:11:55.168Z,2.56
2023-04-28T02:14:57.531Z,2.52
2023-04-28T02:17:59.381Z,2.46
2023-04-28T02:21:10.041Z,1.95
2023-04-28T02:24:11.793Z,1.89
2023-04-28T02:27:13.634Z,1.98
2023-04-28T02:30:15.673Z,2.06
2023-04-28T02:33:17.571Z,2.12
2023-04-28T02:36:19.405Z,1.96
2023-04-28T02:39:26.818Z,1.89
2023-04-28T02:42:28.605Z,1.95
2023-04-28T02:45:30.458Z,2.04
2023-04-28T02:48:35.517Z,2.04
2023-04-28T02:51:37.327Z,2.07
2023-04-28T02:54:39.229Z,2.07
2023-04-28T02:57:41.104Z,2.08
2023-04-28T03:00:42.911Z,2.09
2023-04-28T03:03:44.856Z,2.07
2023-04-28T03:06:47.030Z,1.97
2023-04-28T03:09:49.152Z,2.02
2023-04-28T03:12:50.997Z,1.91
2023-04-28T03:15:53.155Z,1.95
2023-04-28T03:18:55.303Z,1.93
2023-04-28T03:21:57.424Z,1.98
2023-04-28T03:24:59.398Z,1.96
2023-04-28T03:28:01.345Z,1.99
2023-04-28T03:31:03.570Z,2.03
2023-04-28T03:34:05.469Z,2.01
2023-04-28T03:37:07.362Z,1.99
2023-04-28T03:40:09.889Z,2.03
2023-04-28T03:43:11.843Z,2.07
2023-04-28T03:46:13.688Z,2.11
2023-04-28T03:49:15.806Z,2.13
2023-04-28T03:52:17.662Z,2.13
2023-04-28T03:55:19.444Z,2.05
2023-04-28T03:58:21.695Z,2.19
2023-04-28T04:01:24.103Z,2.23
2023-04-28T04:04:27.937Z,2.29
2023-04-28T04:07:30.001Z,2.30
2023-04-28T04:10:31.950Z,2.33
2023-04-28T04:13:33.786Z,2.27
2023-04-28T04:16:36.366Z,2.31
2023-04-28T04:19:38.097Z,2.40
2023-04-28T04:22:40.252Z,2.45
2023-04-28T04:25:42.348Z,2.57
2023-04-28T04:28:44.124Z,3.29
2023-04-28T04:31:46.099Z,5.68
2023-04-28T04:34:48.124Z,8.47
2023-04-28T04:37:49.949Z,8.41
2023-04-28T04:40:51.988Z,7.06
2023-04-28T04:43:53.976Z,6.96
2023-04-28T04:46:56.248Z,10.09
2023-04-28T04:49:58.603Z,8.50
2023-04-28T04:53:00.408Z,10.34
2023-04-28T04:56:02.749Z,12.40
2023-04-28T04:59:04.835Z,13.47
2023-04-28T05:02:06.973Z,11.10
2023-04-28T05:05:20.375Z,9.91
2023-04-28T05:08:23.372Z,9.16
2023-04-28T05:11:26.213Z,8.46
2023-04-28T05:14:28.353Z,8.08
2023-04-28T05:17:30.748Z,7.74
2023-04-28T05:20:32.969Z,7.89
2023-04-28T05:23:34.803Z,7.88
2023-04-28T05:26:36.978Z,8.15
2023-04-28T05:29:38.996Z,8.23
2023-04-28T05:32:41.094Z,8.43
2023-04-28T05:35:43.049Z,8.39
2023-04-28T05:38:45.181Z,8.55
2023-04-28T05:41:47.327Z,8.66
2023-04-28T05:44:49.285Z,8.50
2023-04-28T05:47:51.480Z,8.71
2023-04-28T05:50:53.610Z,8.85
2023-04-28T05:53:56.056Z,9.23
2023-04-28T05:57:00.121Z,9.44
2023-04-28T06:00:04.165Z,9.82
2023-04-28T06:03:07.036Z,9.97
2023-04-28T06:06:10.617Z,10.41
2023-04-28T06:09:15.076Z,10.43
2023-04-28T06:12:17.675Z,10.50
2023-04-28T06:15:20.037Z,10.81
2023-04-28T06:18:24.364Z,11.21
2023-04-28T06:21:27.401Z,11.24
2023-04-28T06:24:29.532Z,11.41
2023-04-28T06:27:33.021Z,10.79
2023-04-28T06:30:35.643Z,10.88
2023-04-28T06:33:37.558Z,10.96
2023-04-28T06:36:40.885Z,11.69
2023-04-28T06:39:43.274Z,11.97
2023-04-28T06:42:45.275Z,12.34
2023-04-28T06:45:47.373Z,11.69
2023-04-28T06:48:49.833Z,12.18
2023-04-28T06:51:52.228Z,11.89
2023-04-28T06:54:54.288Z,12.31
2023-04-28T06:57:56.356Z,12.31
2023-04-28T07:00:58.376Z,12.55
2023-04-28T07:04:01.116Z,12.47
2023-04-28T07:07:04.790Z,12.38
2023-04-28T07:10:07.659Z,12.56
2023-04-28T07:13:09.898Z,12.62
2023-04-28T07:16:12.331Z,12.59
2023-04-28T07:19:15.181Z,12.57
2023-04-28T07:22:17.744Z,13.05
2023-04-28T07:25:20.045Z,13.40
2023-04-28T07:28:22.201Z,13.23
2023-04-28T07:31:24.394Z,13.81
2023-04-28T07:34:27.563Z,14.03
2023-04-28T07:37:31.195Z,14.00
2023-04-28T07:40:34.004Z,14.64
2023-04-28T07:43:36.283Z,14.65
2023-04-28T07:46:38.303Z,14.72
2023-04-28T07:49:40.615Z,14.36
2023-04-28T07:52:43.455Z,14.77
2023-04-28T07:55:46.907Z,14.68
2023-04-28T07:58:48.940Z,14.51
2023-04-28T08:01:50.738Z,14.52
2023-04-28T08:04:52.772Z,14.97
2023-04-28T08:07:54.784Z,15.18
2023-04-28T08:10:57.313Z,15.63
2023-04-28T08:14:02.733Z,15.89
2023-04-28T08:17:04.655Z,15.40
2023-04-28T08:20:07.406Z,15.69
2023-04-28T08:23:10.015Z,15.56
2023-04-28T08:26:11.899Z,15.86
2023-04-28T08:29:13.772Z,15.76
2023-04-28T08:32:15.922Z,15.88
2023-04-28T08:35:19.296Z,15.89
2023-04-28T08:38:24.098Z,15.49
2023-04-28T08:41:29.955Z,15.97
2023-04-28T08:44:39.194Z,16.20
2023-04-28T08:47:48.215Z,15.89
2023-04-28T08:50:52.974Z,16.56
2023-04-28T08:57:01.214Z,16.45
2023-04-28T09:00:03.459Z,16.79
2023-04-28T09:03:09.123Z,17.05
2023-04-28T09:06:11.337Z,16.52
2023-04-28T09:09:32.968Z,17.02
2023-04-28T09:12:37.847Z,17.33
2023-04-28T09:15:42.907Z,17.82
2023-04-28T09:18:59.238Z,17.62
2023-04-28T09:22:10.507Z,17.41
2023-04-28T09:25:22.302Z,17.78
2023-04-28T09:28:24.267Z,17.82
2023-04-28T09:31:28.635Z,18.04
2023-04-28T09:34:45.664Z,18.05
2023-04-28T09:37:47.519Z,17.89
2023-04-28T09:40:57.131Z,18.19
2023-04-28T09:44:17.331Z,18.26
2023-04-28T09:47:25.574Z,17.86
2023-04-28T09:50:27.585Z,18.22
2023-04-28T09:53:30.315Z,18.11
2023-04-28T09:56:34.537Z,17.99
2023-04-28T09:59:37.020Z,17.15
2023-04-28T10:05:44.319Z,17.76
2023-04-28T10:08:48.320Z,18.49
2023-04-28T10:11:50.244Z,18.87
2023-04-28T10:14:54.875Z,18.94
2023-04-28T10:17:57.135Z,18.64
2023-04-28T10:21:03.202Z,19.05
2023-04-28T10:24:08.501Z,18.53
2023-04-28T10:27:10.527Z,18.93
2023-04-28T10:30:26.625Z,18.53
2023-04-28T10:33:30.727Z,18.76
2023-04-28T10:36:52.493Z,18.47
2023-04-28T10:40:31.601Z,18.73
2023-04-28T10:43:34.769Z,18.52
2023-04-28T10:47:09.445Z,18.64
2023-04-28T10:50:11.762Z,19.07
2023-04-28T10:53:13.592Z,19.50
2023-04-28T10:56:25.038Z,19.62
2023-04-28T10:59:28.409Z,19.86
2023-04-28T11:02:40.419Z,19.18
2023-04-28T11:06:28.323Z,19.61
2023-04-28T11:09:33.227Z,19.50
2023-04-28T11:12:35.018Z,19.42
2023-04-28T11:15:37.043Z,19.69
2023-04-28T11:18:54.896Z,19.25
2023-04-28T11:21:59.440Z,19.20
2023-04-28T11:25:03.053Z,19.00
2023-04-28T11:28:07.032Z,18.84
2023-04-28T11:31:13.426Z,18.98
2023-04-28T11:34:19.617Z,18.60
2023-04-28T11:37:21.663Z,18.90
2023-04-28T11:40:23.543Z,19.20
2023-04-28T11:43:43.744Z,18.77
2023-04-28T11:46:55.858Z,18.37
2023-04-28T11:49:58.131Z,18.41
2023-04-28T11:53:00.193Z,18.25
2023-04-28T11:56:08.196Z,18.21
2023-04-28T11:59:11.537Z,18.47
2023-04-28T12:02:13.890Z,18.32
2023-04-28T12:05:20.734Z,18.30
2023-04-28T12:08:29.577Z,18.56
2023-04-28T12:11:31.644Z,18.87
2023-04-28T12:15:13.589Z,19.03
2023-04-28T12:18:19.450Z,18.56
2023-04-28T12:21:21.922Z,18.61
2023-04-28T12:24:26.052Z,18.66
2023-04-28T12:27:29.083Z,17.80
2023-04-28T12:30:33.478Z,17.47
2023-04-28T12:33:39.514Z,17.82
2023-04-28T12:36:41.362Z,17.46
2023-04-28T12:39:43.697Z,17.42
2023-04-28T12:42:46.307Z,17.33
2023-04-28T12:45:48.149Z,17.35
2023-04-28T12:48:50.093Z,17.63
2023-04-28T12:51:51.951Z,17.58
2023-04-28T12:54:53.923Z,17.39
2023-04-28T12:57:55.910Z,17.43
2023-04-28T13:00:57.817Z,17.42
2023-04-28T13:03:59.917Z,17.53
2023-04-28T13:07:02.477Z,17.88
2023-04-28T13:10:04.576Z,17.90
2023-04-28T13:13:06.679Z,17.96
2023-04-28T13:16:08.800Z,18.24
2023-04-28T13:19:13.813Z,18.00
2023-04-28T13:22:16.196Z,18.07
2023-04-28T13:25:18.034Z,17.86
2023-04-28T13:28:19.849Z,17.97
2023-04-28T13:31:21.655Z,17.96
2023-04-28T13:34:23.788Z,17.98
2023-04-28T13:37:25.757Z,18.20
2023-04-28T13:40:31.251Z,18.22
2023-04-28T13:43:33.188Z,17.49
2023-04-28T13:46:35.040Z,17.82
2023-04-28T13:49:37.431Z,17.97
2023-04-28T13:52:39.898Z,17.87
2023-04-28T13:55:41.890Z,17.77
2023-04-28T13:58:43.804Z,17.71
2023-04-28T14:01:46.081Z,17.65
2023-04-28T14:04:50.602Z,17.63
2023-04-28T14:07:56.114Z,17.81
2023-04-28T14:10:58.162Z,17.58
2023-04-28T14:14:00.033Z,17.50
2023-04-28T14:17:03.359Z,17.35
2023-04-28T14:20:05.933Z,17.16
2023-04-28T14:23:08.363Z,17.27
2023-04-28T14:26:10.161Z,17.44
2023-04-28T14:29:12.315Z,17.47
2023-04-28T14:32:21.084Z,17.38
2023-04-28T14:35:23.028Z,17.20
2023-04-28T14:38:25.054Z,17.28
2023-04-28T14:41:27.403Z,17.25
2023-04-28T14:44:29.478Z,17.11
2023-04-28T14:47:31.462Z,16.96
2023-04-28T14:50:33.371Z,17.08
2023-04-28T14:53:35.698Z,17.02
2023-04-28T14:56:37.668Z,16.91
2023-04-28T14:59:39.580Z,16.90
2023-04-28T15:02:41.748Z,16.76
2023-04-28T15:05:44.051Z,16.66
2023-04-28T15:08:46.353Z,16.74
2023-04-28T15:11:49.333Z,16.61
2023-04-28T15:14:53.508Z,16.62
2023-04-28T15:18:00.644Z,16.45
2023-04-28T15:21:02.712Z,16.56
2023-04-28T15:24:04.700Z,16.54
2023-04-28T15:27:06.578Z,16.58
2023-04-28T15:30:09.529Z,16.55
2023-04-28T15:33:17.462Z,16.60
2023-04-28T15:36:20.450Z,16.32
2023-04-28T15:39:25.073Z,16.47
2023-04-28T15:42:28.553Z,16.43
2023-04-28T15:45:30.572Z,16.38
2023-04-28T15:48:33.694Z,16.29
2023-04-28T15:51:36.395Z,16.32
2023-04-28T15:54:39.632Z,16.28
2023-04-28T15:57:43.109Z,16.26
2023-04-28T16:00:46.476Z,16.21
2023-04-28T16:03:49.989Z,16.15
2023-04-28T16:06:52.973Z,16.22
2023-04-28T16:09:55.201Z,16.16
2023-04-28T16:13:08.554Z,16.04
2023-04-28T16:16:12.358Z,16.02
2023-04-28T16:19:16.184Z,15.89
2023-04-28T16:22:18.406Z,15.96
2023-04-28T16:25:20.116Z,16.00
2023-04-28T16:28:22.179Z,16.04
2023-04-28T16:31:24.038Z,15.99
2023-04-28T16:34:26.091Z,16.01
2023-04-28T16:37:29.607Z,15.96
2023-04-28T16:40:31.471Z,15.97
2023-04-28T16:43:33.442Z,15.69
2023-04-28T16:46:35.211Z,15.73
2023-04-28T16:49:36.980Z,15.76
2023-04-28T16:52:40.066Z,15.68
2023-04-28T16:55:41.885Z,15.69
2023-04-28T16:58:43.775Z,15.57
2023-04-28T17:01:47.084Z,15.53
2023-04-28T17:04:50.703Z,15.51
2023-04-28T17:07:54.748Z,15.41
2023-04-28T17:10:56.586Z,15.35
2023-04-28T17:13:59.185Z,15.33
2023-04-28T17:17:01.113Z,15.35
2023-04-28T17:20:04.843Z,15.25
2023-04-28T17:23:07.100Z,15.26
2023-04-28T17:26:08.971Z,15.27
2023-04-28T17:29:11.366Z,15.26
2023-04-28T17:32:13.660Z,15.15
2023-04-28T17:35:15.658Z,14.98
2023-04-28T17:38:17.804Z,14.82
2023-04-28T17:41:20.522Z,14.70
2023-04-28T17:44:22.660Z,14.67
2023-04-28T17:47:24.957Z,14.77
2023-04-28T17:50:27.109Z,14.70
2023-04-28T17:53:28.974Z,14.69
2023-04-28T17:56:31.106Z,14.69
2023-04-28T17:59:35.855Z,14.50
2023-04-28T18:02:38.095Z,14.61
2023-04-28T18:05:39.906Z,14.59
2023-04-28T18:08:41.935Z,14.58
2023-04-28T18:11:44.427Z,14.35
2023-04-28T18:14:46.599Z,14.49
2023-04-28T18:17:48.436Z,14.44
2023-04-28T18:20:57.182Z,14.34
2023-04-28T18:23:59.683Z,14.24
2023-04-28T18:27:02.434Z,14.24
2023-04-28T18:30:04.701Z,14.15
2023-04-28T18:33:07.967Z,14.19
2023-04-28T18:36:13.037Z,14.16
2023-04-28T18:39:15.241Z,14.14
2023-04-28T18:42:17.454Z,14.05
2023-04-28T18:45:19.514Z,14.06
2023-04-28T18:48:21.784Z,14.04
2023-04-28T18:51:24.054Z,13.95
2023-04-28T18:54:29.376Z,13.89
2023-04-28T18:57:33.629Z,13.92
2023-04-28T19:00:37.249Z,13.90
2023-04-28T19:03:41.022Z,13.84
2023-04-28T19:06:44.812Z,13.78
2023-04-28T19:09:47.218Z,13.69
2023-04-28T19:12:49.644Z,13.69
2023-04-28T19:15:56.208Z,13.69
2023-04-28T19:18:58.178Z,13.54
2023-04-28T19:22:00.991Z,13.54
2023-04-28T19:25:05.806Z,13.43
2023-04-28T19:28:08.872Z,13.42
2023-04-28T19:31:11.328Z,13.35
2023-04-28T19:34:13.989Z,13.41
2023-04-28T19:37:20.137Z,13.39
2023-04-28T19:40:22.130Z,13.36
2023-04-28T19:43:24.001Z,13.33
2023-04-28T19:46:25.856Z,13.33
2023-04-28T19:49:28.268Z,13.22
2023-04-28T19:52:30.173Z,13.06
2023-04-28T19:55:32.228Z,13.09
2023-04-28T19:58:34.294Z,13.02
2023-04-28T20:01:41.686Z,13.03
2023-04-28T20:04:43.835Z,13.04
2023-04-28T20:07:47.376Z,13.06
2023-04-28T20:10:49.164Z,13.03
2023-04-28T20:13:51.230Z,13.02
2023-04-28T20:16:53.184Z,12.78
2023-04-28T20:19:55.101Z,12.70
2023-04-28T20:22:57.004Z,12.68
2023-04-28T20:26:01.692Z,12.63
2023-04-28T20:29:04.877Z,12.62
2023-04-28T20:32:08.071Z,12.50
2023-04-28T20:35:10.292Z,12.41
2023-04-28T20:38:12.176Z,12.36
2023-04-28T20:41:14.287Z,12.43
2023-04-28T20:44:16.230Z,12.48
2023-04-28T20:47:18.074Z,12.31
2023-04-28T20:50:20.041Z,12.38
2023-04-28T20:53:22.289Z,12.43
2023-04-28T20:56:24.341Z,12.50
2023-04-28T20:59:26.373Z,12.47
2023-04-28T21:02:28.472Z,12.38
2023-04-28T21:05:30.631Z,12.39
2023-04-28T21:08:32.699Z,12.40
2023-04-28T21:11:34.553Z,12.37
2023-04-28T21:14:39.213Z,12.38
2023-04-28T21:17:41.106Z,12.35
2023-04-28T21:20:42.911Z,12.23
2023-04-28T21:23:45.886Z,12.18
2023-04-28T21:26:47.799Z,12.12
2023-04-28T21:29:49.986Z,12.03
2023-04-28T21:32:53.397Z,12.07
2023-04-28T21:35:56.325Z,12.13
2023-04-28T21:38:58.850Z,12.12
2023-04-28T21:42:00.688Z,12.16
2023-04-28T21:45:02.623Z,12.09
2023-04-28T21:48:06.364Z,12.05
2023-04-28T21:51:08.446Z,12.09
2023-04-28T21:54:10.928Z,12.09
2023-04-28T21:57:12.713Z,12.07
2023-04-28T22:00:14.992Z,12.08
2023-04-28T22:03:17.367Z,12.11
2023-04-28T22:06:20.137Z,12.15
2023-04-28T22:09:22.205Z,12.07
2023-04-28T22:12:24.172Z,12.10
2023-04-28T22:15:26.200Z,11.99
2023-04-28T22:18:28.700Z,12.02
2023-04-28T22:21:32.174Z,11.99
2023-04-28T22:24:34.507Z,11.96
2023-04-28T22:27:36.321Z,12.01
2023-04-28T22:30:38.386Z,11.68
2023-04-28T22:33:40.540Z,11.40
2023-04-28T22:36:42.805Z,11.54
2023-04-28T22:39:44.642Z,11.62
2023-04-28T22:42:46.560Z,11.52
2023-04-28T22:45:48.788Z,11.52
2023-04-28T22:48:51.027Z,11.59
2023-04-28T22:51:52.890Z,11.62
2023-04-28T22:54:54.726Z,11.65
2023-04-28T22:57:57.022Z,11.65
2023-04-28T23:01:04.208Z,11.66
2023-04-28T23:04:06.440Z,11.56
2023-04-28T23:07:08.418Z,11.47
2023-04-28T23:10:13.041Z,11.54
2023-04-28T23:13:16.545Z,11.49
2023-04-28T23:16:18.950Z,11.47
2023-04-28T23:19:21.032Z,11.46
2023-04-28T23:22:23.118Z,11.38
2023-04-28T23:25:25.403Z,11.42
2023-04-28T23:28:27.322Z,11.40
2023-04-28T23:31:30.632Z,11.41
2023-04-28T23:34:32.697Z,11.39
2023-04-28T23:37:34.528Z,11.32
2023-04-28T23:40:36.624Z,11.34
2023-04-28T23:43:38.455Z,11.36
2023-04-28T23:46:40.865Z,11.34
2023-04-28T23:49:42.896Z,11.39
2023-04-28T23:52:46.177Z,11.38
2023-04-28T23:55:48.446Z,11.38
2023-04-28T23:58:51.200Z,11.37
